Time;durP1;ratioP1;P1;durP2;ratioP2;P2;SDS_P1;SDS_P2;PMS_P1;PMS_P2;Temp;Humidity;BMP_temperature;BMP_pressure;BME280_temperature;BME280_humidity;BME280_pressure;Samples;Min_cycle;Max_cycle;Signal;HPM_P1;HPM_P2
2022/10/11 00:00:18;;;;;;;8.32;7.10;;;;;;;22.70;60.79;101603.78;5096138;28;20387;-77
2022/10/11 00:02:45;;;;;;;8.68;6.95;;;;;;;22.69;60.84;101613.72;5096262;28;20056;-77
2022/10/11 00:05:12;;;;;;;10.27;6.53;;;;;;;22.70;60.63;101609.19;5095968;28;20047;-77
2022/10/11 00:07:40;;;;;;;7.88;6.95;;;;;;;22.69;60.81;101602.94;5094592;28;20040;-77
2022/10/11 00:10:08;;;;;;;8.15;7.35;;;;;;;22.70;60.73;101601.94;5095905;28;20055;-77
2022/10/11 00:12:36;;;;;;;8.15;7.35;;;;;;;22.68;60.82;101601.19;5096061;28;20051;-77
2022/10/11 00:15:05;;;;;;;7.88;6.80;;;;;;;22.68;60.64;101603.91;5096741;28;20051;-71
2022/10/11 00:17:33;;;;;;;8.02;6.50;;;;;;;22.68;60.81;101601.19;5095809;28;20044;-71
2022/10/11 00:20:00;;;;;;;8.55;7.55;;;;;;;22.68;60.62;101600.34;5095648;28;20055;-71
2022/10/11 00:22:27;;;;;;;9.25;7.15;;;;;;;22.68;60.87;101605.75;5095606;28;20372;-70
2022/10/11 00:24:55;;;;;;;9.65;7.30;;;;;;;22.67;60.74;101591.41;5095906;28;20044;-70
2022/10/11 00:27:22;;;;;;;9.70;7.22;;;;;;;22.67;60.61;101596.78;5095652;28;20403;-70
2022/10/11 00:29:49;;;;;;;8.45;7.10;;;;;;;22.67;60.65;101594.09;5095595;28;20055;-70
2022/10/11 00:32:17;;;;;;;7.97;7.03;;;;;;;22.68;60.62;101598.50;5093648;28;20048;-70
2022/10/11 00:34:44;;;;;;;8.52;7.32;;;;;;;22.66;60.66;101595.09;5095567;28;20040;-70
2022/10/11 00:37:11;;;;;;;7.97;7.18;;;;;;;22.66;60.62;101592.41;5095133;28;20399;-71
2022/10/11 00:39:39;;;;;;;8.10;6.60;;;;;;;22.67;60.48;101591.41;5094161;28;20055;-70
2022/10/11 00:42:12;;;;;;;8.45;6.68;;;;;;;22.67;60.64;101596.78;5095630;28;20066;-77
2022/10/11 00:44:44;;;;;;;8.80;7.35;;;;;;;22.65;60.53;101585.28;5096180;28;20044;-77
2022/10/11 00:47:24;;;;;;;9.43;7.65;;;;;;;22.66;60.57;101591.53;5095228;28;20048;-77
2022/10/11 00:50:00;;;;;;;6.90;6.20;;;;;;;22.65;60.45;101589.84;5095016;28;20048;-77
2022/10/11 00:52:39;;;;;;;8.95;7.07;;;;;;;22.65;60.38;101588.00;5095315;28;20056;-70
2022/10/11 00:55:13;;;;;;;7.55;6.70;;;;;;;22.65;60.52;101593.41;5095160;28;20047;-70
2022/10/11 00:57:46;;;;;;;9.63;6.80;;;;;;;22.64;60.28;101583.56;5095051;28;20048;-71
2022/10/11 01:00:15;;;;;;;9.52;6.72;;;;;;;22.64;60.41;101583.56;5093404;28;20059;-70
2022/10/11 01:02:42;;;;;;;8.70;7.05;;;;;;;22.64;60.29;101580.88;5094867;28;20054;-71
2022/10/11 01:05:13;;;;;;;8.02;6.80;;;;;;;22.64;60.34;101588.09;5094917;28;20047;-70
2022/10/11 01:07:59;;;;;;;8.80;7.18;;;;;;;22.63;60.46;101586.41;5095259;28;20051;-70
2022/10/11 01:10:27;;;;;;;8.18;7.25;;;;;;;22.64;60.28;101590.81;5093781;28;20056;-71
2022/10/11 01:13:21;;;;;;;9.52;6.32;;;;;;;22.63;60.45;101581.00;5095849;28;20506;-77
2022/10/11 01:16:00;;;;;;;7.85;6.95;;;;;;;22.63;60.27;101581.88;5095282;28;20047;-76
2022/10/11 01:18:50;;;;;;;8.30;6.38;;;;;;;22.62;60.23;101582.88;5098696;28;20052;-76
2022/10/11 01:21:46;;;;;;;8.00;7.05;;;;;;;22.63;60.32;101584.56;5096315;28;20055;-77
2022/10/11 01:24:54;;;;;;;8.68;6.53;;;;;;;22.63;60.19;101581.88;5095329;28;20455;-77
2022/10/11 01:27:43;;;;;;;8.85;6.78;;;;;;;22.62;60.13;101582.00;5094527;28;20050;-77
2022/10/11 01:30:25;;;;;;;7.13;6.43;;;;;;;22.62;60.16;101576.63;5094448;28;20044;-77
2022/10/11 01:32:55;;;;;;;7.78;6.95;;;;;;;22.63;60.20;101575.63;5096217;28;20044;-70
2022/10/11 01:35:51;;;;;;;8.60;7.18;;;;;;;22.62;60.21;101582.00;5094784;28;20398;-71
2022/10/11 01:38:49;;;;;;;8.35;7.28;;;;;;;22.61;60.18;101578.47;5095316;28;20048;-71
2022/10/11 01:41:42;;;;;;;7.60;6.05;;;;;;;22.60;60.16;101568.63;5095777;28;20055;-71
2022/10/11 01:44:11;;;;;;;8.25;6.63;;;;;;;22.61;60.31;101566.81;5087460;28;20063;-71
2022/10/11 01:46:39;;;;;;;6.90;5.93;;;;;;;22.61;60.21;101566.81;5094221;28;20048;-70
2022/10/11 01:49:07;;;;;;;7.85;7.10;;;;;;;22.62;60.06;101560.41;5094226;28;20051;-70
2022/10/11 01:51:38;;;;;;;8.80;6.97;;;;;;;22.61;60.01;101561.41;5093940;28;20496;-70
2022/10/11 01:54:07;;;;;;;8.15;6.55;;;;;;;22.60;60.03;101554.28;5094259;28;20040;-77
2022/10/11 01:57:11;;;;;;;7.75;6.90;;;;;;;22.60;60.08;101562.38;5094274;28;20055;-70
2022/10/11 01:59:58;;;;;;;9.45;7.07;;;;;;;22.60;60.20;101557.00;5093408;28;20047;-71
2022/10/11 02:03:02;;;;;;;7.80;6.68;;;;;;;22.60;59.93;101562.38;5094166;28;20039;-70
2022/10/11 02:05:39;;;;;;;7.28;6.53;;;;;;;22.59;60.07;101552.59;5093885;28;20068;-70
2022/10/11 02:08:12;;;;;;;8.77;7.00;;;;;;;22.59;59.93;101564.22;5093932;28;20055;-70
2022/10/11 02:10:48;;;;;;;6.82;6.20;;;;;;;22.59;59.99;101556.13;5096414;28;20463;-71
2022/10/11 02:13:21;;;;;;;6.97;5.97;;;;;;;22.59;59.97;101556.13;5094004;28;20044;-71
2022/10/11 02:15:51;;;;;;;8.73;7.18;;;;;;;22.59;59.75;101552.59;5093816;28;20040;-70
2022/10/11 02:18:23;;;;;;;7.97;7.00;;;;;;;22.59;59.69;101560.69;5093911;28;20055;-71
2022/10/11 02:20:52;;;;;;;8.80;7.72;;;;;;;22.59;59.89;101561.53;5092550;28;20395;-70
2022/10/11 02:23:26;;;;;;;8.30;7.40;;;;;;;22.58;59.71;101559.84;5093890;28;20051;-70
2022/10/11 02:25:56;;;;;;;7.68;6.88;;;;;;;22.59;59.82;101558.00;5093680;28;20052;-70
2022/10/11 02:28:30;;;;;;;8.60;6.70;;;;;;;22.59;59.74;101555.28;5093789;28;20051;-70
2022/10/11 02:31:00;;;;;;;7.75;6.30;;;;;;;22.58;59.86;101551.75;5097912;28;20467;-71
2022/10/11 02:33:37;;;;;;;9.05;7.45;;;;;;;22.58;59.86;101559.84;5096651;28;20475;-70
2022/10/11 02:36:15;;;;;;;8.90;7.65;;;;;;;22.57;59.79;101550.03;5098826;28;20047;-77
2022/10/11 02:38:51;;;;;;;7.35;6.65;;;;;;;22.58;59.76;101549.03;5097686;28;20047;-77
2022/10/11 02:41:26;;;;;;;10.20;6.70;;;;;;;22.57;59.78;101544.63;5097726;28;20063;-71
2022/10/11 02:44:12;;;;;;;8.90;6.60;;;;;;;22.57;59.72;101547.34;5097276;28;20043;-70
2022/10/11 02:46:40;;;;;;;7.95;7.15;;;;;;;22.57;59.60;101544.63;5097319;28;20581;-70
2022/10/11 02:49:09;;;;;;;7.97;7.25;;;;;;;22.55;59.74;101541.22;5097237;28;20399;-70
2022/10/11 02:51:36;;;;;;;7.82;6.97;;;;;;;22.58;59.86;101553.59;5096904;28;20063;-70
2022/10/11 02:54:03;;;;;;;9.10;7.88;;;;;;;22.57;59.79;101541.94;5097780;28;20055;-70
2022/10/11 02:56:31;;;;;;;9.13;7.43;;;;;;;22.56;59.91;101544.75;5097242;28;20051;-70
2022/10/11 02:58:58;;;;;;;7.78;6.72;;;;;;;22.56;59.86;101542.91;5097403;28;20040;-70
2022/10/11 03:01:25;;;;;;;8.82;7.05;;;;;;;22.55;59.94;101535.81;5097202;28;20044;-70
2022/10/11 03:03:52;;;;;;;8.20;7.50;;;;;;;22.56;59.74;101542.91;5097052;28;20051;-70
2022/10/11 03:06:20;;;;;;;9.45;7.30;;;;;;;22.56;59.87;101547.44;5098429;28;20044;-77
2022/10/11 03:08:47;;;;;;;8.95;8.05;;;;;;;22.56;59.70;101542.06;5097461;28;20384;-71
2022/10/11 03:11:14;;;;;;;9.18;7.93;;;;;;;22.56;59.65;101540.22;5095769;28;20040;-71
2022/10/11 03:13:41;;;;;;;7.88;7.07;;;;;;;22.56;59.89;101539.34;5096876;28;20071;-71
2022/10/11 03:16:09;;;;;;;9.63;7.50;;;;;;;22.56;59.73;101536.66;5097211;28;20047;-70
2022/10/11 03:18:36;;;;;;;8.63;7.47;;;;;;;22.55;59.95;101535.81;5096713;28;20055;-70
2022/10/11 03:21:04;;;;;;;8.13;6.93;;;;;;;22.55;59.66;101538.50;5096903;28;20044;-70
2022/10/11 03:23:41;;;;;;;9.75;7.20;;;;;;;22.55;59.70;101541.22;5108160;28;20048;-71
2022/10/11 03:26:24;;;;;;;8.73;7.50;;;;;;;22.56;59.82;101542.91;5109558;28;20036;-71
2022/10/11 03:28:51;;;;;;;9.88;8.52;;;;;;;22.55;59.80;101541.22;5096872;28;20055;-70
2022/10/11 03:31:19;;;;;;;12.65;8.20;;;;;;;22.53;59.60;101537.81;5096519;28;20047;-71
2022/10/11 03:33:46;;;;;;;9.00;7.82;;;;;;;22.54;59.57;101544.91;5096713;28;20059;-71
2022/10/11 03:36:14;;;;;;;7.97;7.18;;;;;;;22.54;59.76;101544.06;5096206;28;20407;-71
2022/10/11 03:38:42;;;;;;;10.35;7.75;;;;;;;22.54;59.65;101539.50;5097285;28;20040;-71
2022/10/11 03:41:09;;;;;;;9.25;8.18;;;;;;;22.54;59.74;101547.59;5095817;28;20048;-70
2022/10/11 03:43:36;;;;;;;8.60;7.55;;;;;;;22.54;59.49;101553.00;5095642;28;20054;-70
2022/10/11 03:46:03;;;;;;;11.25;7.50;;;;;;;22.54;59.60;101554.84;5096333;28;20356;-70
2022/10/11 03:48:32;;;;;;;10.25;8.18;;;;;;;22.52;59.64;101552.25;5096256;28;20051;-70
2022/10/11 03:50:59;;;;;;;9.95;7.47;;;;;;;22.52;59.60;101552.25;5096132;28;20059;-71
2022/10/11 03:53:26;;;;;;;8.60;7.72;;;;;;;22.52;59.60;101551.41;5096213;28;20050;-70
2022/10/11 03:55:55;;;;;;;10.00;7.75;;;;;;;22.53;59.54;101547.75;5096298;28;20044;-71
2022/10/11 03:58:22;;;;;;;9.55;7.47;;;;;;;22.51;59.49;101550.56;5096239;28;20480;-70
2022/10/11 04:00:51;;;;;;;9.57;8.18;;;;;;;22.52;59.79;101552.25;5096241;28;20044;-71
2022/10/11 04:03:18;;;;;;;9.02;7.72;;;;;;;22.52;59.37;101546.88;5095848;28;20048;-71
2022/10/11 04:05:46;;;;;;;9.40;7.72;;;;;;;22.52;59.63;101546.03;5096148;28;20395;-71
2022/10/11 04:08:13;;;;;;;9.60;7.63;;;;;;;22.52;59.57;101546.03;5095834;28;20048;-71
2022/10/11 04:10:40;;;;;;;9.57;7.60;;;;;;;22.52;59.82;101546.88;5095891;28;20044;-71
2022/10/11 04:13:10;;;;;;;8.57;7.72;;;;;;;22.51;59.75;101553.25;5093889;28;20067;-70
2022/10/11 04:15:38;;;;;;;9.68;7.18;;;;;;;22.51;59.50;101547.88;5095777;28;20063;-70
2022/10/11 04:18:05;;;;;;;8.77;7.57;;;;;;;22.51;59.65;101550.56;5095892;28;20063;-70
2022/10/11 04:20:33;;;;;;;8.00;7.20;;;;;;;22.51;59.84;101550.56;5096058;28;20048;-78
2022/10/11 04:23:01;;;;;;;9.45;8.15;;;;;;;22.52;59.70;101556.81;5095472;28;20051;-78
2022/10/11 04:25:28;;;;;;;15.52;8.52;;;;;;;22.51;59.69;101547.88;5096531;28;20499;-78
2022/10/11 04:27:55;;;;;;;11.98;7.55;;;;;;;22.51;59.80;101544.31;5094418;28;20052;-78
2022/10/11 04:30:23;;;;;;;9.18;7.70;;;;;;;22.52;59.73;101548.72;5095337;28;20056;-71
2022/10/11 04:32:50;;;;;;;8.60;7.38;;;;;;;22.50;59.85;101556.97;5095344;28;20055;-71
2022/10/11 04:35:17;;;;;;;9.38;7.43;;;;;;;22.50;59.79;101550.72;5095196;28;20502;-71
2022/10/11 04:37:45;;;;;;;8.65;7.75;;;;;;;22.50;59.69;101554.25;5096528;28;20043;-71
2022/10/11 04:40:13;;;;;;;8.52;7.63;;;;;;;22.51;59.52;101552.41;5095463;28;20044;-71
2022/10/11 04:42:40;;;;;;;9.45;7.70;;;;;;;22.51;59.61;101545.16;5095478;28;20471;-71
2022/10/11 04:45:08;;;;;;;12.90;8.48;;;;;;;22.51;59.52;101550.56;5094994;28;20051;-71
2022/10/11 04:47:35;;;;;;;9.10;8.20;;;;;;;22.50;59.56;101556.09;5095197;28;20514;-71
2022/10/11 04:50:03;;;;;;;11.40;7.72;;;;;;;22.49;59.52;101557.97;5095157;28;20080;-71
2022/10/11 04:52:30;;;;;;;12.80;7.57;;;;;;;22.49;59.66;101563.34;5094228;28;20403;-71
2022/10/11 04:54:58;;;;;;;9.30;7.45;;;;;;;22.49;59.63;101557.09;5094826;28;20407;-71
2022/10/11 04:57:25;;;;;;;9.18;7.88;;;;;;;22.50;59.55;101558.81;5094977;28;20126;-71
2022/10/11 04:59:52;;;;;;;11.63;7.47;;;;;;;22.49;59.67;101566.06;5094744;28;20478;-71
2022/10/11 05:02:20;;;;;;;8.98;7.57;;;;;;;22.48;59.35;101558.91;5094824;28;20051;-71
2022/10/11 05:04:47;;;;;;;10.55;8.15;;;;;;;22.49;59.64;101563.34;5094943;28;20517;-71
2022/10/11 05:07:14;;;;;;;8.40;7.40;;;;;;;22.48;59.45;101564.31;5094789;28;20044;-71
2022/10/11 05:09:42;;;;;;;9.50;7.18;;;;;;;22.49;59.45;101568.75;5094726;28;20051;-71
2022/10/11 05:12:09;;;;;;;11.05;8.88;;;;;;;22.49;59.57;101567.91;5094790;28;20071;-71
2022/10/11 05:14:36;;;;;;;9.80;7.85;;;;;;;22.48;59.57;101575.09;5094779;28;20051;-70
2022/10/11 05:17:04;;;;;;;8.77;7.82;;;;;;;22.47;59.42;101573.41;5094687;28;20044;-70
2022/10/11 05:19:31;;;;;;;10.20;8.18;;;;;;;22.47;59.58;101573.41;5094487;28;20044;-70
2022/10/11 05:21:58;;;;;;;11.35;7.63;;;;;;;22.48;59.46;101572.41;5094475;28;20052;-70
2022/10/11 05:24:25;;;;;;;9.43;7.88;;;;;;;22.47;59.43;101578.81;5093575;28;20051;-71
2022/10/11 05:26:53;;;;;;;9.20;8.27;;;;;;;22.46;59.28;101577.97;5094405;28;20479;-71
2022/10/11 05:29:20;;;;;;;9.30;7.68;;;;;;;22.46;59.55;101577.09;5094435;28;20044;-71
2022/10/11 05:31:47;;;;;;;10.95;7.72;;;;;;;22.47;59.44;101581.50;5093213;28;20048;-70
2022/10/11 05:34:15;;;;;;;11.43;8.20;;;;;;;22.45;59.49;101578.94;5093025;28;20055;-71
2022/10/11 05:36:42;;;;;;;9.50;7.20;;;;;;;22.45;59.49;101584.34;5075688;28;20505;-71
2022/10/11 05:39:09;;;;;;;9.82;7.50;;;;;;;22.46;59.45;101594.16;5094352;28;20044;-70
2022/10/11 05:41:36;;;;;;;10.85;8.70;;;;;;;22.44;59.36;101585.34;5094155;28;20044;-71
2022/10/11 05:44:06;;;;;;;10.70;8.07;;;;;;;22.45;59.31;101597.00;5094178;28;20043;-71
2022/10/11 05:46:33;;;;;;;9.77;8.40;;;;;;;22.44;59.12;101593.44;5094109;28;20051;-71
2022/10/11 05:49:01;;;;;;;9.90;8.85;;;;;;;22.45;59.40;101591.59;5094364;28;20048;-71
2022/10/11 05:51:28;;;;;;;8.63;7.68;;;;;;;22.45;59.27;101599.69;5093910;28;20556;-71
2022/10/11 05:53:55;;;;;;;9.35;8.27;;;;;;;22.44;59.28;101596.13;5094145;28;20518;-70
2022/10/11 05:56:24;;;;;;;9.25;7.70;;;;;;;22.44;59.10;101592.56;5094171;28;20047;-71
2022/10/11 05:58:52;;;;;;;10.18;8.32;;;;;;;22.44;59.16;101598.84;5093945;28;20091;-71
2022/10/11 06:01:25;;;;;;;11.18;7.90;;;;;;;22.44;59.08;101595.25;5094208;28;20063;-71
2022/10/11 06:03:53;;;;;;;9.85;7.47;;;;;;;22.43;59.17;101604.34;5093635;28;20048;-71
2022/10/11 06:06:21;;;;;;;12.35;8.00;;;;;;;22.44;59.60;101603.34;5092069;28;20063;-71
2022/10/11 06:08:48;;;;;;;8.95;7.13;;;;;;;22.44;59.70;101608.75;5093977;28;20048;-71
2022/10/11 06:11:24;;;;;;;8.73;7.18;;;;;;;22.45;59.48;101607.78;5094048;28;20380;-71
2022/10/11 06:13:59;;;;;;;10.48;9.20;;;;;;;22.44;59.43;101609.63;5075943;28;20052;-71
2022/10/11 06:16:26;;;;;;;10.10;7.22;;;;;;;22.44;59.62;101615.03;5094097;28;20043;-71
2022/10/11 06:18:55;;;;;;;11.07;8.45;;;;;;;22.46;59.77;101614.88;5090573;28;20070;-73
2022/10/11 06:21:23;;;;;;;11.93;7.72;;;;;;;22.45;59.48;101615.88;5092207;28;20048;-72
2022/10/11 06:23:51;;;;;;;10.52;8.07;;;;;;;22.46;59.49;101615.72;5093694;28;20051;-72
2022/10/11 06:26:26;;;;;;;9.27;7.43;;;;;;;22.47;59.58;101619.28;5093527;28;20047;-70
2022/10/11 06:28:53;;;;;;;16.02;12.73;;;;;;;22.46;57.66;101621.13;5093377;28;20051;-70
2022/10/11 06:31:21;;;;;;;13.57;11.38;;;;;;;22.46;58.04;101622.97;5093469;28;20044;-70
2022/10/11 06:33:48;;;;;;;15.38;11.50;;;;;;;22.43;58.11;101618.69;5093282;28;20048;-71
2022/10/11 06:36:17;;;;;;;13.80;9.52;;;;;;;22.45;58.29;101629.38;5093562;28;20400;-71
2022/10/11 06:38:44;;;;;;;11.23;9.60;;;;;;;22.44;58.66;101631.22;5093625;28;20047;-71
2022/10/11 06:41:16;;;;;;;14.70;10.10;;;;;;;22.45;58.80;101629.38;5093776;28;20510;-70
2022/10/11 06:43:44;;;;;;;12.95;8.82;;;;;;;22.45;58.83;101632.91;5093940;28;20048;-72
2022/10/11 06:46:11;;;;;;;11.77;8.57;;;;;;;22.46;58.95;101636.47;5093595;28;20055;-71
2022/10/11 06:48:42;;;;;;;11.18;9.82;;;;;;;22.46;58.62;101639.16;5093666;28;20048;-71
2022/10/11 06:51:12;;;;;;;9.85;8.65;;;;;;;22.47;58.73;101635.47;5093168;28;20055;-71
2022/10/11 06:53:39;;;;;;;10.63;8.40;;;;;;;22.44;58.78;101625.81;5093775;28;20475;-71
2022/10/11 06:56:09;;;;;;;12.23;8.70;;;;;;;22.46;58.84;101633.78;5093676;28;20051;-71
2022/10/11 06:58:38;;;;;;;14.25;8.48;;;;;;;22.46;58.96;101634.63;5093187;28;20044;-71
2022/10/11 07:01:09;;;;;;;15.48;9.38;;;;;;;22.47;58.88;101638.16;5093142;28;20044;-71
2022/10/11 07:03:37;;;;;;;13.82;9.48;;;;;;;22.47;58.91;101638.16;5092184;28;20047;-71
2022/10/11 07:06:07;;;;;;;12.30;9.32;;;;;;;22.47;58.76;101632.78;5092894;28;20040;-71
2022/10/11 07:08:36;;;;;;;10.05;8.65;;;;;;;22.48;58.84;101641.72;5093249;28;20051;-71
2022/10/11 07:11:12;;;;;;;11.20;8.98;;;;;;;22.47;58.62;101640.88;5092768;28;20051;-71
2022/10/11 07:13:40;;;;;;;13.57;9.82;;;;;;;22.48;58.67;101647.13;5091784;28;20475;-78
2022/10/11 07:16:11;;;;;;;14.85;11.10;;;;;;;22.47;58.33;101646.25;5094882;28;20040;-78
2022/10/11 07:18:38;;;;;;;19.92;16.83;;;;;;;22.45;57.40;101640.16;5097102;28;20059;-90
2022/10/11 07:21:10;;;;;;;27.25;18.15;;;;;;;22.42;56.21;101638.56;5078878;28;20071;-84
2022/10/11 07:23:37;;;;;;;21.40;17.77;;;;;;;22.43;56.66;101650.22;5097625;28;20052;-84
2022/10/11 07:26:05;;;;;;;24.08;17.05;;;;;;;22.43;56.73;101655.59;5095350;28;20051;-84
2022/10/11 07:28:35;;;;;;;20.63;16.27;;;;;;;22.44;56.82;101654.63;5097581;28;20059;-83
2022/10/11 07:31:11;;;;;;;16.85;13.13;;;;;;;22.44;57.41;101650.09;5096340;28;20044;-81
2022/10/11 07:33:39;;;;;;;15.93;12.23;;;;;;;22.44;57.63;101650.09;5097276;28;20043;-84
2022/10/11 07:36:07;;;;;;;16.10;10.93;;;;;;;22.45;57.93;101649.09;5097252;28;20048;-85
2022/10/11 07:38:38;;;;;;;15.27;10.73;;;;;;;22.47;58.29;101662.44;5097727;28;20044;-85
2022/10/11 07:41:06;;;;;;;11.77;9.00;;;;;;;22.48;58.59;101661.47;5098125;28;20044;-84
2022/10/11 07:43:35;;;;;;;11.93;9.63;;;;;;;22.49;58.71;101668.59;5095831;28;20403;-82
2022/10/11 07:46:03;;;;;;;9.90;8.45;;;;;;;22.49;59.03;101657.78;5097237;28;20044;-80
2022/10/11 07:48:33;;;;;;;13.60;9.00;;;;;;;22.51;59.03;101657.66;5097680;28;20048;-82
2022/10/11 07:51:22;;;;;;;10.75;9.65;;;;;;;22.51;58.89;101660.34;5097213;28;20060;-83
2022/10/11 07:53:54;;;;;;;11.05;8.65;;;;;;;22.51;59.09;101658.50;5096946;28;20048;-82
2022/10/11 07:56:25;;;;;;;11.68;8.18;;;;;;;22.50;59.14;101662.19;5095347;28;20405;-82
2022/10/11 07:58:56;;;;;;;11.93;8.13;;;;;;;22.51;59.02;101669.28;5096692;28;20456;-81
2022/10/11 08:01:25;;;;;;;13.45;8.30;;;;;;;22.52;59.18;101665.59;5097530;28;20043;-86
2022/10/11 08:03:53;;;;;;;11.40;8.57;;;;;;;22.53;59.26;101659.25;5097144;28;20044;-83
2022/10/11 08:06:23;;;;;;;11.50;8.93;;;;;;;22.54;59.04;101658.25;5097295;28;20048;-84
2022/10/11 08:08:50;;;;;;;10.15;8.63;;;;;;;22.54;58.91;101658.25;5096701;28;20044;-82
2022/10/11 08:11:22;;;;;;;12.00;8.10;;;;;;;22.55;59.23;101659.94;5096684;28;20048;-81
2022/10/11 08:13:50;;;;;;;9.52;7.30;;;;;;;22.54;59.35;101658.25;5096820;28;20051;-82
2022/10/11 08:16:18;;;;;;;9.48;7.95;;;;;;;22.57;59.51;101666.09;5096406;28;20040;-81
2022/10/11 08:18:45;;;;;;;10.23;7.80;;;;;;;22.57;59.26;101666.09;5094384;28;20048;-83
2022/10/11 08:21:15;;;;;;;8.57;7.72;;;;;;;22.58;59.00;101666.94;5094891;28;20044;-83
2022/10/11 08:23:43;;;;;;;10.50;8.38;;;;;;;22.57;58.91;101663.38;5096572;28;20048;-85
2022/10/11 08:26:11;;;;;;;10.45;8.65;;;;;;;22.58;59.22;101669.63;5096284;28;20052;-86
2022/10/11 08:28:38;;;;;;;11.05;7.53;;;;;;;22.58;59.10;101662.38;5097308;28;20048;-84
2022/10/11 08:31:10;;;;;;;7.72;6.90;;;;;;;22.59;59.16;101668.63;5095045;28;20510;-86
2022/10/11 08:33:37;;;;;;;8.13;7.07;;;;;;;22.59;59.07;101669.47;5095578;28;20052;-81
2022/10/11 08:36:06;;;;;;;8.77;6.82;;;;;;;22.59;59.17;101666.78;5096084;28;20055;-82
2022/10/11 08:38:38;;;;;;;12.07;7.55;;;;;;;22.60;59.32;101671.19;5095487;28;20040;-86
2022/10/11 08:41:34;;;;;;;9.98;7.30;;;;;;;22.61;59.30;101667.53;5095571;28;20048;-85
2022/10/11 08:44:20;;;;;;;11.13;7.50;;;;;;;22.63;59.39;101670.06;5033655;28;20065;-87
2022/10/11 08:46:52;;;;;;;9.27;7.13;;;;;;;22.62;59.14;101662.97;5033829;28;20057;-83
2022/10/11 08:49:30;;;;;;;7.45;6.25;;;;;;;22.62;59.06;101668.38;5033572;28;20069;-87
2022/10/11 08:52:10;;;;;;;7.65;6.50;;;;;;;22.62;59.14;101674.63;5033518;28;20053;-81
2022/10/11 08:54:52;;;;;;;9.82;7.18;;;;;;;22.63;59.10;101673.63;5033258;28;20065;-84
2022/10/11 08:57:22;;;;;;;7.85;7.03;;;;;;;22.63;58.86;101672.78;5016463;28;20049;-88
2022/10/11 08:59:54;;;;;;;8.80;7.47;;;;;;;22.65;59.08;101671.66;5033223;28;20060;-86
2022/10/11 09:02:32;;;;;;;7.97;7.07;;;;;;;22.64;58.92;101669.94;5032670;28;20461;-84
2022/10/11 09:05:21;;;;;;;8.38;7.25;;;;;;;22.65;59.14;101668.13;5033182;28;20053;-84
2022/10/11 09:08:21;;;;;;;8.98;7.47;;;;;;;22.64;58.81;101667.22;5032499;28;20064;-87
2022/10/11 09:10:58;;;;;;;7.78;6.68;;;;;;;22.66;58.87;101659.88;5032884;28;20060;-83
2022/10/11 09:13:50;;;;;;;12.05;6.68;;;;;;;22.64;59.13;101664.53;5032846;28;20064;-82
2022/10/11 09:16:35;;;;;;;10.60;6.90;;;;;;;22.66;58.80;101664.41;5006479;28;20057;-84
2022/10/11 09:19:35;;;;;;;10.40;7.13;;;;;;;22.67;59.21;101664.28;5032939;28;20053;-85
2022/10/11 09:22:32;;;;;;;7.00;6.40;;;;;;;22.68;58.96;101663.28;5074642;28;20056;-91
2022/10/11 09:25:17;;;;;;;8.45;7.53;;;;;;;22.68;58.91;101662.44;5090213;28;20056;-81
2022/10/11 09:28:03;;;;;;;11.60;7.18;;;;;;;22.69;58.77;101666.88;5095483;28;20395;-80
2022/10/11 09:30:32;;;;;;;7.05;6.22;;;;;;;22.68;58.82;101660.56;5094606;28;20059;-88
2022/10/11 09:33:08;;;;;;;7.80;6.95;;;;;;;22.70;58.87;101658.63;5095594;28;20040;-86
2022/10/11 09:35:40;;;;;;;8.93;7.80;;;;;;;22.69;58.66;101656.91;5095028;28;20052;-88
2022/10/11 09:38:26;;;;;;;9.45;7.78;;;;;;;22.69;58.65;101656.06;5095129;28;20036;-89
2022/10/11 09:41:18;;;;;;;8.73;7.80;;;;;;;22.70;58.54;101655.06;5094352;28;20048;-82
2022/10/11 09:43:48;;;;;;;7.68;6.88;;;;;;;22.70;58.53;101655.91;5094839;28;20048;-88
2022/10/11 09:46:36;;;;;;;7.20;6.50;;;;;;;22.70;58.55;101646.97;5094232;28;20047;-81
2022/10/11 09:49:07;;;;;;;9.10;6.90;;;;;;;22.71;58.71;101649.53;5095003;28;20403;-85
2022/10/11 09:51:35;;;;;;;9.15;7.20;;;;;;;22.71;58.66;101654.06;5094553;28;20415;-84
2022/10/11 09:54:05;;;;;;;7.90;6.38;;;;;;;22.70;58.49;101647.81;5094665;28;20050;-84
2022/10/11 09:56:39;;;;;;;9.60;7.28;;;;;;;22.71;58.48;101649.53;5094800;28;20055;-86
2022/10/11 09:59:30;;;;;;;9.75;7.45;;;;;;;22.72;58.42;101650.38;5094810;28;20472;-83
2022/10/11 10:02:13;;;;;;;11.07;8.02;;;;;;;22.71;58.54;101649.53;5095536;28;20491;-89
2022/10/11 10:04:53;;;;;;;8.25;7.07;;;;;;;22.71;58.65;101649.53;5094046;28;20040;-92
2022/10/11 10:07:21;;;;;;;7.88;7.15;;;;;;;22.71;58.64;101649.53;5095871;28;20047;-85
2022/10/11 10:09:49;;;;;;;9.23;7.55;;;;;;;22.75;58.50;101651.97;5094884;28;20036;-84
2022/10/11 10:12:30;;;;;;;13.23;7.85;;;;;;;22.74;58.65;101651.09;5094050;28;20055;-84
2022/10/11 10:15:06;;;;;;;15.93;8.85;;;;;;;22.74;58.26;101655.66;5093311;28;20048;-84
2022/10/11 10:17:35;;;;;;;15.07;8.25;;;;;;;22.75;58.09;101643.88;5093487;28;20400;-81
2022/10/11 10:20:04;;;;;;;13.73;7.55;;;;;;;22.74;58.42;101648.41;5093660;28;20047;-85
2022/10/11 10:22:34;;;;;;;8.82;7.80;;;;;;;22.75;58.25;101655.50;5094083;28;20071;-80
2022/10/11 10:25:06;;;;;;;15.00;7.20;;;;;;;22.75;58.38;101657.34;5093395;28;20052;-83
2022/10/11 10:27:34;;;;;;;11.52;7.40;;;;;;;22.74;58.28;101645.72;5093494;28;20054;-80
2022/10/11 10:30:07;;;;;;;8.73;7.82;;;;;;;22.76;58.11;101656.34;5093303;28;20051;-82
2022/10/11 10:32:39;;;;;;;12.85;8.13;;;;;;;22.75;58.33;101649.25;5093184;28;20051;-84
2022/10/11 10:35:48;;;;;;;10.57;8.23;;;;;;;22.76;58.00;101650.97;5094343;28;20055;-84
2022/10/11 10:38:42;;;;;;;9.50;7.70;;;;;;;22.75;57.89;101644.72;5092174;28;20040;-81
2022/10/11 10:41:11;;;;;;;;;;;;;;;22.76;57.77;101645.56;5093545;28;20372;-82
2022/10/11 10:43:40;;;;;;;12.35;8.23;;;;;;;22.76;57.80;101646.41;5093425;28;19920;-88
2022/10/11 10:46:35;;;;;;;11.60;7.50;;;;;;;22.76;57.50;101646.41;5094053;28;20052;-85
2022/10/11 10:49:27;;;;;;;9.63;7.55;;;;;;;22.75;57.49;101642.00;5094313;28;20048;-87
2022/10/11 10:52:14;;;;;;;8.48;7.32;;;;;;;22.77;57.21;101645.44;5097274;28;20048;-87
2022/10/11 10:55:18;;;;;;;9.80;7.68;;;;;;;22.78;57.35;101646.31;5096152;28;20052;-86
2022/10/11 10:57:49;;;;;;;11.18;7.95;;;;;;;22.77;57.42;101633.78;5097346;28;20040;-89
2022/10/11 11:00:22;;;;;;;8.40;7.20;;;;;;;22.78;57.65;101639.06;5097744;28;20051;-84
2022/10/11 11:02:55;;;;;;;9.50;7.50;;;;;;;22.78;57.32;101638.19;5097028;28;20055;-83
2022/10/11 11:05:26;;;;;;;8.60;7.75;;;;;;;22.79;57.30;101642.59;5097447;28;20063;-80
2022/10/11 11:08:11;;;;;;;8.82;7.68;;;;;;;22.77;57.19;101637.34;5095795;28;20488;-81
2022/10/11 11:11:01;;;;;;;9.35;8.32;;;;;;;22.78;57.14;101638.19;5098028;28;20051;-84
2022/10/11 11:13:44;;;;;;;10.48;7.80;;;;;;;22.79;57.14;101637.19;5096740;28;20055;-82
2022/10/11 11:16:19;;;;;;;9.27;7.68;;;;;;;22.79;56.67;101634.50;5096407;28;20472;-84
2022/10/11 11:18:55;;;;;;;9.45;8.23;;;;;;;22.78;57.10;101624.69;5097673;28;20048;-89
2022/10/11 11:21:41;;;;;;;8.07;7.25;;;;;;;22.78;56.85;101627.41;5097109;28;20048;-94
2022/10/11 11:24:50;;;;;;;9.93;7.70;;;;;;;22.79;57.08;101624.56;5091574;28;20051;-88
2022/10/11 11:27:43;;;;;;;8.32;7.35;;;;;;;22.80;56.85;101625.41;5056897;28;20152;-87
2022/10/11 11:30:20;;;;;;;10.75;8.02;;;;;;;22.80;56.79;101622.72;5076266;28;20484;-85
2022/10/11 11:33:18;;;;;;;10.50;8.23;;;;;;;22.79;56.84;101623.72;5075891;28;20055;-89
2022/10/11 11:35:51;;;;;;;11.55;8.40;;;;;;;22.79;56.75;101621.00;5075862;28;20484;-84
2022/10/11 11:38:32;;;;;;;8.45;7.57;;;;;;;22.79;56.29;101612.91;5075959;28;20055;-84
2022/10/11 11:41:04;;;;;;;9.98;8.45;;;;;;;22.77;55.95;101610.34;5076097;28;20045;-84
2022/10/11 11:44:00;;;;;;;11.95;9.68;;;;;;;22.77;55.46;101615.75;5092007;28;20068;-85
2022/10/11 11:46:34;;;;;;;10.48;9.20;;;;;;;22.77;55.76;101609.47;5075509;28;20048;-82
2022/10/11 11:49:14;;;;;;;10.77;8.95;;;;;;;22.78;55.62;101611.22;5075318;28;20047;-83